• Join FlightAware (Why Join?)
  • Login
  • US Flag 
04:53PM EDT


 

Airport Tracker/Info


-or-


 

Live Flight TrackerFlight Track Log ✈ MAS1438 ✈ 23-Apr-2013 ✈ WMKK / KUL - WMKL / LGK

Flight Track Log - Related Links

Times and Time Zones

All times are in EDT time to prevent confusion due to time zone crossing. See the MAS1438 flight status page for this flight to view local times or setup timezone preferences in your user account.

Time Position Orientation Groundspeed Altitude Reporting Facility
EDT Latitude Longitude Course Direction KTS MPH feet Rate Location/Type
11:16PM 2.8040 101.6860 328° Northwest 193 222 1,600  Level FlightAware
11:17PM 2.8360 101.6680 331° Northwest 210 242 1,900 1,080 Climbing FlightAware
11:17PM 2.8680 101.6440 323° Northwest 256 295 2,900 2,160 Climbing FlightAware
11:18PM 2.9060 101.6120 320° Northwest 297 342 4,100 2,160 Climbing FlightAware
11:18PM 2.9310 101.5900 319° Northwest 302 348 5,100 2,400 Climbing FlightAware
11:19PM 2.9570 101.5670 319° Northwest 306 352 6,100 2,400 Climbing FlightAware
11:19PM 2.9870 101.5300 309° West 310 357 7,500 2,400 Climbing FlightAware
11:20PM 3.0180 101.4950 312° West 318 366 8,700 2,160 Climbing FlightAware
11:20PM 3.0430 101.4720 317° Northwest 329 379 9,500 2,280 Climbing FlightAware
11:21PM 3.0890 101.4350 321° Northwest 339 390 11,000 2,040 Climbing FlightAware
11:22PM 3.1480 101.3850 320° Northwest 364 419 12,400 2,040 Climbing FlightAware
11:22PM 3.2100 101.3340 321° Northwest 379 436 14,300 2,520 Climbing FlightAware
11:23PM 3.2600 101.2970 324° Northwest 386 444 15,800 2,520 Climbing FlightAware
11:24PM 3.3310 101.2600 333° Northwest 394 453 17,700 2,280 Climbing FlightAware
11:24PM 3.4060 101.2210 333° Northwest 407 468 19,300 2,100 Climbing FlightAware
11:25PM 3.4700 101.1890 333° Northwest 414 476 20,700 2,100 Climbing FlightAware
11:26PM 3.5420 101.1520 333° Northwest 420 483 22,100 1,920 Climbing FlightAware
11:26PM 3.6210 101.1110 333° Northwest 429 494 23,500 1,800 Climbing FlightAware
11:27PM 3.6950 101.0730 333° Northwest 436 502 24,700 1,620 Climbing FlightAware
11:28PM 3.7690 101.0360 333° Northwest 444 511 25,700 1,740 Climbing FlightAware
11:29PM 3.8970 100.9700 333° Northwest 453 521 27,600 1,380 Climbing FlightAware
11:29PM 3.9730 100.9310 333° Northwest 454 522 28,000 240 Climbing FlightAware
11:30PM 4.0510 100.8910 333° Northwest 454 522 28,000  Level FlightAware
11:31PM 4.1330 100.8490 333° Northwest 454 522 28,000  Level FlightAware
11:32PM 4.2060 100.8120 333° Northwest 455 524 28,000  Level FlightAware
11:32PM 4.2920 100.7680 333° Northwest 456 525 28,000  Level FlightAware
11:33PM 4.3680 100.7290 333° Northwest 458 527 28,000  Level FlightAware
11:34PM 4.4430 100.6900 333° Northwest 459 528 28,000  Level FlightAware
11:34PM 4.5280 100.6470 333° Northwest 461 531 28,000  Level FlightAware
11:35PM 4.6060 100.6070 333° Northwest 463 533 28,000  Level FlightAware
11:36PM 4.6930 100.5620 333° Northwest 462 532 28,000  Level FlightAware
11:36PM 4.7690 100.5230 333° Northwest 461 531 28,000  Level FlightAware
11:37PM 4.8540 100.4790 333° Northwest 460 529 28,000  Level FlightAware
11:38PM 4.9290 100.4410 333° Northwest 455 524 28,000 -960 Level FlightAware
11:39PM 5.0110 100.3990 333° Northwest 437 503 26,700 -1,920 Descending FlightAware
11:39PM 5.0840 100.3620 333° Northwest 429 494 25,300 -1,620 Descending FlightAware
11:40PM 5.1660 100.3000 323° Northwest 427 491 24,200 -2,160 Descending FlightAware
11:41PM 5.2310 100.2490 322° Northwest 410 472 21,900 -2,700 Descending FlightAware
11:42PM 5.2970 100.1960 321° Northwest 401 461 20,400 -1,980 Descending FlightAware
11:42PM 5.3620 100.1430 321° Northwest 393 452 19,000 -1,980 Descending FlightAware
11:43PM 5.4090 100.1050 321° Northwest 384 442 17,800 -1,800 Descending FlightAware
11:44PM 5.4720 100.0530 321° Northwest 367 422 16,600 -1,560 Descending FlightAware
11:44PM 5.5300 100.0070 322° Northwest 353 406 15,500 -1,680 Descending FlightAware
11:45PM 5.5850 99.9720 328° Northwest 347 399 14,300 -1,800 Descending FlightAware
11:46PM 5.6450 99.9320 326° Northwest 339 390 13,000 -1,860 Descending FlightAware
11:47PM 5.6930 99.8990 326° Northwest 337 388 11,700 -2,100 Descending FlightAware
11:47PM 5.7500 99.8620 327° Northwest 343 395 10,200 -2,100 Descending FlightAware
11:48PM 5.7870 99.8370 326° Northwest 339 390 9,300 -1,800 Descending FlightAware
11:48PM 5.8280 99.8100 327° Northwest 336 387 8,400 -1,680 Descending FlightAware
11:49PM 5.8760 99.7820 330° Northwest 334 384 7,400 -960 Descending FlightAware
11:49PM 5.9050 99.7630 327° Northwest 334 384 7,400  Level FlightAware
11:52PM 6.0933 99.7478 355° North  Level Estimated
11:53PM 6.1783 99.7409 355° North  Level Estimated
11:54PM 6.2633 99.7340 355° North  Level Estimated
11:55PM 6.3297 99.7287 355° North  Level Estimated
11:56PM 6.3297 99.7287 236° Southwest  Level Estimated
11:57PM 6.3297 99.7287 236° Southwest  Level Estimated
11:58PM 6.3297 99.7287 236° Southwest  Level Estimated
11:59PM 6.3297 99.7287 236° Southwest  Level Estimated
12:00AM 6.3297 99.7287 236° Southwest  Level Estimated
12:01AM 6.3297 99.7287 236° Southwest  Level Estimated
12:02AM 6.3297 99.7287 236° Southwest  Level Estimated
12:03AM 6.3297 99.7287 236° Southwest  Level Estimated
12:04AM 6.3297 99.7287 236° Southwest  Level Estimated
12:05AM 6.3297 99.7287 236° Southwest  Level Estimated